createdAt,value
2022-11-28T00:00:45.606Z,34
2022-11-28T00:02:47.279Z,34
2022-11-28T00:06:50.275Z,34
2022-11-28T00:08:51.932Z,34
2022-11-28T00:10:53.430Z,34
2022-11-28T00:12:55.400Z,34
2022-11-28T00:16:58.124Z,34
2022-11-28T00:18:59.242Z,34
2022-11-28T00:23:02.904Z,34
2022-11-28T00:27:05.884Z,34
2022-11-28T00:29:07.794Z,34
2022-11-28T00:31:09.563Z,34
2022-11-28T00:33:11.662Z,34
2022-11-28T00:39:16.332Z,34
2022-11-28T00:41:17.647Z,34
2022-11-28T00:43:18.680Z,34
2022-11-28T00:45:19.865Z,34
2022-11-28T00:47:21.118Z,34
2022-11-28T00:49:22.311Z,34
2022-11-28T00:53:25.490Z,34
2022-11-28T00:55:26.859Z,34
2022-11-28T00:59:30.235Z,34
2022-11-28T01:01:31.856Z,34
2022-11-28T01:05:35.164Z,34
2022-11-28T01:09:37.590Z,34
2022-11-28T01:11:38.708Z,34
2022-11-28T01:15:41.188Z,34
2022-11-28T01:19:44.663Z,34
2022-11-28T01:21:45.846Z,34
2022-11-28T01:25:49.373Z,34
2022-11-28T01:27:51.028Z,34
2022-11-28T01:29:52.595Z,34
2022-11-28T01:31:53.725Z,34
2022-11-28T01:37:57.568Z,34
2022-11-28T01:39:59.021Z,34
2022-11-28T01:42:00.524Z,34
2022-11-28T01:44:01.726Z,34
2022-11-28T01:48:04.705Z,34
2022-11-28T01:50:06.341Z,34
2022-11-28T01:52:07.459Z,34
2022-11-28T01:54:09.458Z,34
2022-11-28T01:58:13.045Z,34
2022-11-28T02:00:14.656Z,34
2022-11-28T02:02:16.397Z,34
2022-11-28T02:04:18.008Z,34
2022-11-28T02:06:19.554Z,34
2022-11-28T02:08:20.650Z,34
2022-11-28T02:10:22.311Z,34
2022-11-28T02:12:24.146Z,34
2022-11-28T02:14:26.120Z,34
2022-11-28T02:16:27.301Z,34
2022-11-28T02:18:28.864Z,34
2022-11-28T02:20:29.898Z,34
2022-11-28T02:22:31.685Z,34
2022-11-28T02:24:33.041Z,34
2022-11-28T02:26:34.239Z,34
2022-11-28T02:30:37.321Z,34
2022-11-28T02:32:39.096Z,34
2022-11-28T02:34:44.354Z,34
2022-11-28T02:36:41.901Z,34
2022-11-28T02:40:44.383Z,34
2022-11-28T02:42:45.895Z,34
2022-11-28T02:44:47.558Z,34
2022-11-28T02:46:48.754Z,34
2022-11-28T02:48:50.367Z,34
2022-11-28T02:50:52.176Z,34
2022-11-28T02:52:53.677Z,34
2022-11-28T02:54:55.009Z,34
2022-11-28T02:56:56.866Z,34
2022-11-28T02:58:58.661Z,34
2022-11-28T03:00:59.891Z,34
2022-11-28T03:03:01.181Z,34
2022-11-28T03:05:02.986Z,34
2022-11-28T03:07:04.564Z,49
2022-11-28T03:09:06.387Z,360
2022-11-28T03:13:09.185Z,360
2022-11-28T03:15:10.740Z,360
2022-11-28T03:19:14.010Z,360
2022-11-28T03:23:16.936Z,360
2022-11-28T03:25:18.817Z,360
2022-11-28T03:27:19.998Z,360
2022-11-28T03:29:20.978Z,360
2022-11-28T03:33:23.925Z,360
2022-11-28T03:35:25.257Z,60
2022-11-28T03:37:27.153Z,80
2022-11-28T03:39:28.573Z,360
2022-11-28T03:43:32.256Z,360
2022-11-28T03:45:33.923Z,86
2022-11-28T03:47:35.104Z,86
2022-11-28T03:49:36.793Z,70
2022-11-28T03:51:38.274Z,360
2022-11-28T03:55:40.633Z,360
2022-11-28T03:57:42.536Z,28
2022-11-28T03:59:44.503Z,28
2022-11-28T04:01:46.260Z,28
2022-11-28T04:05:48.826Z,339
2022-11-28T04:07:50.315Z,339
2022-11-28T04:11:53.613Z,336
2022-11-28T04:15:56.508Z,336
2022-11-28T04:17:58.120Z,336
2022-11-28T04:19:59.657Z,336
2022-11-28T04:22:01.422Z,336
2022-11-28T04:28:06.492Z,336
2022-11-28T04:30:08.378Z,336
2022-11-28T04:32:09.719Z,336
2022-11-28T04:34:10.956Z,336
2022-11-28T04:38:14.435Z,336
2022-11-28T04:40:15.959Z,336
2022-11-28T04:42:17.481Z,336
2022-11-28T04:44:19.492Z,336
2022-11-28T04:48:22.435Z,341
2022-11-28T04:50:23.666Z,341
2022-11-28T04:54:26.463Z,341
2022-11-28T04:58:29.829Z,341
2022-11-28T05:00:30.939Z,341
2022-11-28T05:02:32.877Z,341
2022-11-28T05:04:34.241Z,341
2022-11-28T05:08:36.459Z,136
2022-11-28T05:10:37.948Z,136
2022-11-28T05:14:41.096Z,136
2022-11-28T05:16:42.413Z,136
2022-11-28T05:20:45.762Z,136
2022-11-28T05:24:48.196Z,136
2022-11-28T05:26:49.493Z,136
2022-11-28T05:30:53.014Z,136
2022-11-28T05:32:54.242Z,136
2022-11-28T05:36:57.879Z,136
2022-11-28T05:41:01.086Z,136
2022-11-28T05:43:02.521Z,135
2022-11-28T05:47:06.080Z,135
2022-11-28T05:51:08.872Z,135
2022-11-28T05:53:10.480Z,135
2022-11-28T05:57:12.997Z,136
2022-11-28T05:59:14.083Z,135
2022-11-28T06:01:15.277Z,135
2022-11-28T06:03:16.456Z,135
2022-11-28T06:09:28.929Z,135
2022-11-28T06:13:24.441Z,135
2022-11-28T06:15:25.989Z,135
2022-11-28T06:19:29.191Z,135
2022-11-28T06:21:30.693Z,135
2022-11-28T06:23:32.343Z,135
2022-11-28T06:25:34.097Z,135
2022-11-28T06:29:37.207Z,135
2022-11-28T06:30:21.106Z,136
2022-11-28T06:32:22.570Z,135
2022-11-28T06:34:23.908Z,135
2022-11-28T06:36:24.946Z,135
2022-11-28T06:38:26.099Z,135
2022-11-28T06:40:27.462Z,135
2022-11-28T06:42:29.183Z,135
2022-11-28T06:46:32.467Z,135
2022-11-28T06:48:33.947Z,135
2022-11-28T06:50:35.234Z,135
2022-11-28T06:52:36.968Z,135
2022-11-28T06:56:40.410Z,135
2022-11-28T06:58:41.718Z,135
2022-11-28T07:00:43.167Z,135
2022-11-28T07:02:45.214Z,135
2022-11-28T07:06:48.198Z,135
2022-11-28T07:08:49.643Z,135
2022-11-28T07:10:51.032Z,135
2022-11-28T07:12:52.692Z,135
2022-11-28T07:18:56.204Z,135
2022-11-28T07:20:57.254Z,135
2022-11-28T07:22:59.193Z,135
2022-11-28T07:25:00.377Z,135
2022-11-28T07:29:03.347Z,135
2022-11-28T07:31:05.207Z,135
2022-11-28T07:33:07.204Z,135
2022-11-28T07:35:08.718Z,135
2022-11-28T07:39:12.239Z,135
2022-11-28T07:41:13.633Z,135
2022-11-28T07:45:15.786Z,135
2022-11-28T07:49:19.273Z,135
2022-11-28T07:51:20.530Z,135
2022-11-28T07:53:22.365Z,135
2022-11-28T07:55:23.413Z,135
2022-11-28T07:59:26.437Z,135
2022-11-28T08:01:28.018Z,136
2022-11-28T08:05:30.637Z,136
2022-11-28T08:07:31.936Z,135
2022-11-28T08:09:33.097Z,136
2022-11-28T08:11:34.322Z,136
2022-11-28T08:17:38.811Z,136
2022-11-28T08:19:39.907Z,136
2022-11-28T08:21:41.173Z,136
2022-11-28T08:23:42.875Z,136
2022-11-28T08:27:45.967Z,136
2022-11-28T08:31:49.221Z,136
2022-11-28T08:33:50.873Z,136
2022-11-28T08:37:56.521Z,136
2022-11-28T08:41:56.850Z,136
2022-11-28T08:43:58.822Z,136
2022-11-28T08:48:01.995Z,136
2022-11-28T08:50:03.436Z,136
2022-11-28T08:52:04.612Z,136
2022-11-28T08:54:05.636Z,136
2022-11-28T08:56:07.389Z,136
2022-11-28T08:58:08.753Z,136
2022-11-28T09:00:10.343Z,136
2022-11-28T09:02:11.773Z,136
2022-11-28T09:04:13.146Z,136
2022-11-28T09:06:14.470Z,136
2022-11-28T09:10:18.111Z,136
2022-11-28T09:12:19.596Z,136
2022-11-28T09:14:20.715Z,136
2022-11-28T09:16:21.969Z,136
2022-11-28T09:20:24.833Z,136
2022-11-28T09:22:26.307Z,136
2022-11-28T09:24:28.264Z,136
2022-11-28T09:26:30.009Z,136
2022-11-28T09:28:31.089Z,136
2022-11-28T09:30:32.759Z,136
2022-11-28T09:32:33.773Z,136
2022-11-28T09:34:34.784Z,136
2022-11-28T09:36:35.867Z,136
2022-11-28T09:38:37.221Z,136
2022-11-28T09:40:38.239Z,136
2022-11-28T09:42:40.108Z,136
2022-11-28T09:44:41.201Z,136
2022-11-28T09:46:42.623Z,136
2022-11-28T09:48:44.515Z,136
2022-11-28T09:52:47.353Z,136
2022-11-28T09:54:48.366Z,136
2022-11-28T09:56:49.476Z,136
2022-11-28T09:58:50.750Z,136
2022-11-28T10:02:53.977Z,136
2022-11-28T10:04:55.440Z,136
2022-11-28T10:06:57.348Z,136
2022-11-28T10:08:58.457Z,136
2022-11-28T10:13:00.878Z,136
2022-11-28T10:15:02.015Z,136
2022-11-28T10:17:03.412Z,136
2022-11-28T10:19:04.637Z,136
2022-11-28T10:23:07.234Z,136
2022-11-28T10:25:08.433Z,136
2022-11-28T10:29:11.041Z,136
2022-11-28T10:31:13.070Z,136
2022-11-28T10:33:14.585Z,136
2022-11-28T10:35:15.731Z,136
2022-11-28T10:41:20.369Z,136
2022-11-28T10:43:21.809Z,136
2022-11-28T10:45:23.693Z,136
2022-11-28T10:47:25.611Z,136
2022-11-28T10:51:28.719Z,136
2022-11-28T10:55:31.009Z,136
2022-11-28T10:57:32.025Z,136
2022-11-28T11:01:35.582Z,136
2022-11-28T11:05:38.183Z,136
2022-11-28T11:07:39.434Z,136
2022-11-28T11:11:42.931Z,136
2022-11-28T11:13:44.128Z,136
2022-11-28T11:15:46.206Z,136
2022-11-28T11:17:47.686Z,136
2022-11-28T11:21:50.292Z,136
2022-11-28T11:23:52.236Z,136
2022-11-28T11:25:53.975Z,136
2022-11-28T11:27:55.333Z,136
2022-11-28T11:29:56.929Z,136
2022-11-28T11:31:57.951Z,136
2022-11-28T11:33:59.801Z,136
2022-11-28T11:36:01.593Z,136
2022-11-28T11:38:03.414Z,136
2022-11-28T11:40:04.513Z,136
2022-11-28T11:44:08.223Z,136
2022-11-28T11:48:11.690Z,136
2022-11-28T11:50:13.233Z,136
2022-11-28T11:52:14.500Z,136
2022-11-28T11:54:15.821Z,136
2022-11-28T11:56:16.843Z,136
2022-11-28T11:58:18.606Z,136
2022-11-28T12:00:20.431Z,136
2022-11-28T12:04:44.232Z,137
2022-11-28T12:06:24.343Z,136
2022-11-28T12:08:26.016Z,136
2022-11-28T12:10:27.840Z,137
2022-11-28T12:12:29.041Z,137
2022-11-28T12:16:32.470Z,137
2022-11-28T12:18:34.352Z,137
2022-11-28T12:20:35.824Z,137
2022-11-28T12:22:37.409Z,137
2022-11-28T12:26:40.460Z,136
2022-11-28T12:28:42.085Z,136
2022-11-28T12:30:44.719Z,136
2022-11-28T12:32:45.642Z,136
2022-11-28T12:34:46.845Z,137
2022-11-28T12:36:48.242Z,136
2022-11-28T12:38:50.106Z,137
2022-11-28T12:40:51.257Z,137
2022-11-28T12:42:52.614Z,137
2022-11-28T12:44:53.854Z,137
2022-11-28T12:46:54.928Z,137
2022-11-28T12:48:56.606Z,137
2022-11-28T12:50:58.120Z,137
2022-11-28T12:52:59.271Z,137
2022-11-28T12:55:01.039Z,137
2022-11-28T12:59:04.068Z,137
2022-11-28T13:01:05.656Z,137
2022-11-28T13:05:08.505Z,137
2022-11-28T13:09:11.264Z,137
2022-11-28T13:11:12.457Z,137
2022-11-28T13:13:13.952Z,137
2022-11-28T13:15:15.741Z,137
2022-11-28T13:15:59.602Z,137
2022-11-28T13:18:01.456Z,137
2022-11-28T13:20:02.723Z,137
2022-11-28T13:24:07.460Z,137
2022-11-28T13:26:07.736Z,137
2022-11-28T13:28:09.200Z,137
2022-11-28T13:30:10.410Z,137
2022-11-28T13:32:12.306Z,137
2022-11-28T13:38:34.716Z,137
2022-11-28T13:38:41.628Z,137
2022-11-28T13:40:18.149Z,137
2022-11-28T13:42:52.698Z,137
2022-11-28T13:46:22.024Z,137
2022-11-28T13:48:37.490Z,137
2022-11-28T13:52:26.403Z,137
2022-11-28T13:54:27.513Z,137
2022-11-28T13:56:29.462Z,137
2022-11-28T13:58:30.391Z,137
2022-11-28T14:02:33.596Z,137
2022-11-28T14:06:36.615Z,136
2022-11-28T14:08:37.712Z,137
2022-11-28T14:12:40.644Z,137
2022-11-28T14:14:42.842Z,137
2022-11-28T14:16:48.353Z,136
2022-11-28T14:18:56.593Z,137
2022-11-28T14:22:48.355Z,137
2022-11-28T14:24:49.548Z,137
2022-11-28T14:26:50.609Z,137
2022-11-28T14:28:51.621Z,137
2022-11-28T14:30:52.675Z,137
2022-11-28T14:34:55.547Z,136
2022-11-28T14:36:56.628Z,136
2022-11-28T14:38:57.609Z,136
2022-11-28T14:40:58.763Z,137
2022-11-28T14:45:06.689Z,137
2022-11-28T14:47:02.142Z,136
2022-11-28T14:49:03.899Z,136
2022-11-28T14:51:04.825Z,136
2022-11-28T14:53:06.555Z,136
2022-11-28T14:55:07.782Z,136
2022-11-28T14:57:09.230Z,136
2022-11-28T14:59:10.851Z,136
2022-11-28T15:01:12.113Z,136
2022-11-28T15:03:13.764Z,136
2022-11-28T15:05:14.970Z,136
2022-11-28T15:07:16.950Z,136
2022-11-28T15:09:18.088Z,136
2022-11-28T15:11:19.522Z,136
2022-11-28T15:13:21.131Z,136
2022-11-28T15:17:23.543Z,136
2022-11-28T15:19:24.689Z,136
2022-11-28T15:21:26.601Z,136
2022-11-28T15:23:27.890Z,136
2022-11-28T15:27:31.442Z,136
2022-11-28T15:29:33.097Z,136
2022-11-28T15:33:35.520Z,136
2022-11-28T15:35:37.443Z,136
2022-11-28T15:37:39.415Z,136
2022-11-28T15:39:41.166Z,136
2022-11-28T15:41:43.082Z,136
2022-11-28T15:43:44.705Z,136
2022-11-28T15:45:46.376Z,136
2022-11-28T15:47:47.504Z,136
2022-11-28T15:49:48.743Z,136
2022-11-28T15:51:50.002Z,136
2022-11-28T15:53:51.653Z,136
2022-11-28T15:55:52.903Z,136
2022-11-28T15:57:54.050Z,136
2022-11-28T15:59:55.686Z,136
2022-11-28T16:01:59.308Z,136
2022-11-28T16:03:58.201Z,136
2022-11-28T16:05:59.202Z,136
2022-11-28T16:10:02.012Z,136
2022-11-28T16:12:03.753Z,136
2022-11-28T16:14:05.317Z,136
2022-11-28T16:16:07.134Z,136
2022-11-28T16:20:10.052Z,136
2022-11-28T16:22:11.827Z,136
2022-11-28T16:24:13.044Z,136
2022-11-28T16:26:14.417Z,136
2022-11-28T16:32:18.289Z,136
2022-11-28T16:34:19.510Z,136
2022-11-28T16:36:20.753Z,136
2022-11-28T16:38:21.795Z,136
2022-11-28T16:42:24.563Z,136
2022-11-28T16:44:26.454Z,136
2022-11-28T16:46:27.943Z,136
2022-11-28T16:48:29.181Z,136
2022-11-28T16:52:32.137Z,136
2022-11-28T16:54:34.063Z,136
2022-11-28T16:58:37.499Z,136
2022-11-28T17:02:39.970Z,136
2022-11-28T17:04:41.703Z,136
2022-11-28T17:08:44.759Z,136
2022-11-28T17:12:46.906Z,136
2022-11-28T17:14:48.645Z,136
2022-11-28T17:18:51.499Z,136
2022-11-28T17:20:53.173Z,136
2022-11-28T17:22:54.806Z,136
2022-11-28T17:24:55.983Z,136
2022-11-28T17:28:58.885Z,136
2022-11-28T17:31:00.092Z,136
2022-11-28T17:33:01.192Z,136
2022-11-28T17:35:03.110Z,136
2022-11-28T17:37:03.942Z,136
2022-11-28T17:41:06.399Z,136
2022-11-28T17:43:08.105Z,136
2022-11-28T17:45:09.269Z,136
2022-11-28T17:47:10.700Z,136
2022-11-28T17:51:13.510Z,136
2022-11-28T17:53:15.243Z,136
2022-11-28T17:55:17.211Z,136
2022-11-28T17:57:18.426Z,136
2022-11-28T17:59:20.388Z,136
2022-11-28T18:01:21.466Z,136
2022-11-28T18:03:22.654Z,136
2022-11-28T18:07:25.175Z,136
2022-11-28T18:09:26.156Z,136
2022-11-28T18:11:27.692Z,136
2022-11-28T18:13:29.644Z,136
2022-11-28T18:15:30.819Z,136
2022-11-28T18:17:32.475Z,136
2022-11-28T18:19:33.789Z,136
2022-11-28T18:23:37.153Z,136
2022-11-28T18:25:38.481Z,136
2022-11-28T18:27:39.736Z,136
2022-11-28T18:29:41.658Z,136
2022-11-28T18:33:44.237Z,136
2022-11-28T18:35:45.587Z,136
2022-11-28T18:37:46.854Z,136
2022-11-28T18:39:48.308Z,136
2022-11-28T18:45:54.062Z,136
2022-11-28T18:47:59.982Z,136
2022-11-28T18:49:56.717Z,136
2022-11-28T18:56:01.209Z,136
2022-11-28T18:58:02.391Z,136
2022-11-28T19:00:04.033Z,136
2022-11-28T19:02:05.291Z,136
2022-11-28T19:06:08.446Z,136
2022-11-28T19:08:10.373Z,136
2022-11-28T19:10:20.241Z,136
2022-11-28T19:12:13.911Z,136
2022-11-28T19:16:17.732Z,136
2022-11-28T19:18:19.371Z,136
2022-11-28T19:20:21.059Z,136
2022-11-28T19:22:22.209Z,136
2022-11-28T19:24:23.305Z,136
2022-11-28T19:28:25.666Z,136
2022-11-28T19:30:26.940Z,136
2022-11-28T19:32:28.670Z,136
2022-11-28T19:34:29.807Z,136
2022-11-28T19:36:31.600Z,136
2022-11-28T19:38:33.253Z,136
2022-11-28T19:40:34.596Z,136
2022-11-28T19:42:35.719Z,136
2022-11-28T19:44:37.473Z,136
2022-11-28T19:48:40.816Z,136
2022-11-28T19:52:43.850Z,136
2022-11-28T19:54:45.258Z,136
2022-11-28T19:58:49.094Z,136
2022-11-28T20:00:50.507Z,136
2022-11-28T20:03:36.255Z,136
2022-11-28T20:05:37.406Z,136
2022-11-28T20:09:40.957Z,136
2022-11-28T20:13:44.204Z,136
2022-11-28T20:15:46.165Z,136
2022-11-28T20:19:48.606Z,136
2022-11-28T20:21:59.561Z,136
2022-11-28T20:25:53.800Z,136
2022-11-28T20:29:56.799Z,136
2022-11-28T20:31:58.765Z,136
2022-11-28T20:36:01.363Z,136
2022-11-28T20:38:02.514Z,136
2022-11-28T20:42:05.446Z,136
2022-11-28T20:46:07.706Z,136
2022-11-28T20:48:09.600Z,136
2022-11-28T20:52:12.887Z,136
2022-11-28T20:56:16.258Z,136
2022-11-28T20:58:18.170Z,136
2022-11-28T21:02:21.453Z,136
2022-11-28T21:04:22.552Z,136
2022-11-28T21:06:23.902Z,136
2022-11-28T21:08:25.562Z,136
2022-11-28T21:12:29.395Z,136
2022-11-28T21:14:30.910Z,136
2022-11-28T21:18:33.768Z,136
2022-11-28T21:20:35.060Z,136
2022-11-28T21:24:38.562Z,136
2022-11-28T21:28:41.518Z,136
2022-11-28T21:30:43.346Z,136
2022-11-28T21:34:47.182Z,136
2022-11-28T21:38:50.806Z,136
2022-11-28T21:40:52.675Z,136
2022-11-28T21:44:55.599Z,136
2022-11-28T21:46:57.346Z,136
2022-11-28T21:48:58.854Z,136
2022-11-28T21:50:59.961Z,136
2022-11-28T21:55:03.283Z,136
2022-11-28T21:57:04.805Z,136
2022-11-28T21:59:05.773Z,136
2022-11-28T22:01:07.224Z,136
2022-11-28T22:03:13.856Z,136
2022-11-28T22:07:11.577Z,136
2022-11-28T22:11:15.178Z,136
2022-11-28T22:13:16.911Z,136
2022-11-28T22:17:20.285Z,136
2022-11-28T22:21:50.413Z,136
2022-11-28T22:23:24.310Z,136
2022-11-28T22:25:25.614Z,136
2022-11-28T22:27:26.665Z,136
2022-11-28T22:29:28.033Z,136
2022-11-28T22:31:29.675Z,136
2022-11-28T22:33:30.976Z,136
2022-11-28T22:37:33.866Z,136
2022-11-28T22:39:34.990Z,136
2022-11-28T22:41:36.908Z,136
2022-11-28T22:43:38.664Z,136
2022-11-28T22:45:39.951Z,136
2022-11-28T22:49:42.826Z,136
2022-11-28T22:51:44.719Z,136
2022-11-28T22:53:46.584Z,136
2022-11-28T22:55:47.646Z,136
2022-11-28T22:59:50.525Z,136
2022-11-28T23:01:51.980Z,136
2022-11-28T23:05:54.230Z,136
2022-11-28T23:07:56.226Z,136
2022-11-28T23:09:57.657Z,136
2022-11-28T23:11:59.360Z,136
2022-11-28T23:14:01.171Z,136
2022-11-28T23:16:03.190Z,136
2022-11-28T23:18:04.338Z,136
2022-11-28T23:20:05.723Z,136
2022-11-28T23:22:07.672Z,136
2022-11-28T23:24:09.105Z,136
2022-11-28T23:26:10.787Z,136
2022-11-28T23:28:12.283Z,136
2022-11-28T23:32:15.405Z,136
2022-11-28T23:34:17.177Z,136
2022-11-28T23:38:19.957Z,136
2022-11-28T23:42:22.896Z,136
2022-11-28T23:44:24.311Z,136
2022-11-28T23:46:25.355Z,136
2022-11-28T23:48:26.360Z,136
2022-11-28T23:50:28.233Z,136
2022-11-28T23:52:29.847Z,136
2022-11-28T23:54:30.921Z,136
2022-11-28T23:56:32.133Z,136
2022-11-28T23:58:33.572Z,136
